sensor_id;sensor_type;location;lat;lon;timestamp;P1;durP1;ratioP1;P2;durP2;ratioP2
3779;SDS011;1905;52.482;9.802;2023-11-21T00:00:56;13.77;;;5.80;;
3779;SDS011;1905;52.482;9.802;2023-11-21T00:03:24;17.80;;;5.57;;
3779;SDS011;1905;52.482;9.802;2023-11-21T00:05:54;15.70;;;6.37;;
3779;SDS011;1905;52.482;9.802;2023-11-21T00:08:22;17.20;;;6.67;;
3779;SDS011;1905;52.482;9.802;2023-11-21T00:10:50;14.73;;;6.87;;
3779;SDS011;1905;52.482;9.802;2023-11-21T00:13:18;18.37;;;7.60;;
3779;SDS011;1905;52.482;9.802;2023-11-21T00:15:47;24.13;;;8.27;;
3779;SDS011;1905;52.482;9.802;2023-11-21T00:18:15;23.57;;;6.67;;
3779;SDS011;1905;52.482;9.802;2023-11-21T00:20:43;14.73;;;7.57;;
3779;SDS011;1905;52.482;9.802;2023-11-21T00:23:11;17.30;;;7.00;;
3779;SDS011;1905;52.482;9.802;2023-11-21T00:25:39;20.73;;;8.07;;
3779;SDS011;1905;52.482;9.802;2023-11-21T00:28:07;17.53;;;8.10;;
3779;SDS011;1905;52.482;9.802;2023-11-21T00:30:35;18.17;;;7.40;;
3779;SDS011;1905;52.482;9.802;2023-11-21T00:33:04;20.10;;;8.83;;
3779;SDS011;1905;52.482;9.802;2023-11-21T00:35:32;20.13;;;8.30;;
3779;SDS011;1905;52.482;9.802;2023-11-21T00:37:59;17.17;;;7.83;;
3779;SDS011;1905;52.482;9.802;2023-11-21T00:40:27;15.87;;;6.77;;
3779;SDS011;1905;52.482;9.802;2023-11-21T00:42:55;18.23;;;8.27;;
3779;SDS011;1905;52.482;9.802;2023-11-21T00:45:23;17.80;;;7.63;;
3779;SDS011;1905;52.482;9.802;2023-11-21T00:47:51;17.80;;;7.07;;
3779;SDS011;1905;52.482;9.802;2023-11-21T00:50:21;16.10;;;7.17;;
3779;SDS011;1905;52.482;9.802;2023-11-21T00:52:49;19.00;;;6.93;;
3779;SDS011;1905;52.482;9.802;2023-11-21T00:55:17;25.73;;;9.90;;
3779;SDS011;1905;52.482;9.802;2023-11-21T00:57:45;17.77;;;7.47;;
3779;SDS011;1905;52.482;9.802;2023-11-21T01:00:16;16.77;;;7.60;;
3779;SDS011;1905;52.482;9.802;2023-11-21T01:02:44;21.17;;;8.37;;
3779;SDS011;1905;52.482;9.802;2023-11-21T01:05:13;19.03;;;7.80;;
3779;SDS011;1905;52.482;9.802;2023-11-21T01:07:42;16.20;;;7.73;;
3779;SDS011;1905;52.482;9.802;2023-11-21T01:10:10;22.37;;;8.20;;
3779;SDS011;1905;52.482;9.802;2023-11-21T01:12:38;21.70;;;8.70;;
3779;SDS011;1905;52.482;9.802;2023-11-21T01:15:06;18.23;;;8.30;;
3779;SDS011;1905;52.482;9.802;2023-11-21T01:17:35;23.23;;;7.70;;
3779;SDS011;1905;52.482;9.802;2023-11-21T01:20:03;16.30;;;7.93;;
3779;SDS011;1905;52.482;9.802;2023-11-21T01:22:37;20.70;;;8.70;;
3779;SDS011;1905;52.482;9.802;2023-11-21T01:25:06;18.90;;;9.20;;
3779;SDS011;1905;52.482;9.802;2023-11-21T01:27:34;21.90;;;8.57;;
3779;SDS011;1905;52.482;9.802;2023-11-21T01:30:04;18.77;;;7.70;;
3779;SDS011;1905;52.482;9.802;2023-11-21T01:32:34;21.37;;;8.40;;
3779;SDS011;1905;52.482;9.802;2023-11-21T01:35:02;24.57;;;8.10;;
3779;SDS011;1905;52.482;9.802;2023-11-21T01:37:32;17.63;;;7.73;;
3779;SDS011;1905;52.482;9.802;2023-11-21T01:39:59;21.33;;;8.27;;
3779;SDS011;1905;52.482;9.802;2023-11-21T01:42:32;25.60;;;8.70;;
3779;SDS011;1905;52.482;9.802;2023-11-21T01:45:01;19.30;;;7.60;;
3779;SDS011;1905;52.482;9.802;2023-11-21T01:47:31;21.90;;;10.07;;
3779;SDS011;1905;52.482;9.802;2023-11-21T01:50:00;20.00;;;9.60;;
3779;SDS011;1905;52.482;9.802;2023-11-21T01:52:30;25.83;;;9.40;;
3779;SDS011;1905;52.482;9.802;2023-11-21T01:54:58;19.10;;;8.70;;
3779;SDS011;1905;52.482;9.802;2023-11-21T01:57:28;20.93;;;9.13;;
3779;SDS011;1905;52.482;9.802;2023-11-21T01:59:58;19.13;;;7.60;;
3779;SDS011;1905;52.482;9.802;2023-11-21T02:02:42;19.20;;;8.57;;
3779;SDS011;1905;52.482;9.802;2023-11-21T02:05:10;21.60;;;8.80;;
3779;SDS011;1905;52.482;9.802;2023-11-21T02:07:38;15.87;;;7.50;;
3779;SDS011;1905;52.482;9.802;2023-11-21T02:10:06;24.67;;;8.50;;
3779;SDS011;1905;52.482;9.802;2023-11-21T02:12:35;17.23;;;8.37;;
3779;SDS011;1905;52.482;9.802;2023-11-21T02:15:07;20.10;;;8.80;;
3779;SDS011;1905;52.482;9.802;2023-11-21T02:17:36;17.07;;;8.70;;
3779;SDS011;1905;52.482;9.802;2023-11-21T02:20:04;20.70;;;9.67;;
3779;SDS011;1905;52.482;9.802;2023-11-21T02:22:33;23.50;;;9.63;;
3779;SDS011;1905;52.482;9.802;2023-11-21T02:25:06;17.10;;;7.83;;
3779;SDS011;1905;52.482;9.802;2023-11-21T02:27:35;23.00;;;9.53;;
3779;SDS011;1905;52.482;9.802;2023-11-21T02:30:02;20.60;;;8.03;;
3779;SDS011;1905;52.482;9.802;2023-11-21T02:32:31;23.20;;;8.77;;
3779;SDS011;1905;52.482;9.802;2023-11-21T02:34:59;24.87;;;9.67;;
3779;SDS011;1905;52.482;9.802;2023-11-21T02:37:29;19.80;;;8.90;;
3779;SDS011;1905;52.482;9.802;2023-11-21T02:39:57;19.43;;;7.70;;
3779;SDS011;1905;52.482;9.802;2023-11-21T02:42:27;20.60;;;9.97;;
3779;SDS011;1905;52.482;9.802;2023-11-21T02:44:55;23.70;;;9.67;;
3779;SDS011;1905;52.482;9.802;2023-11-21T02:47:23;20.33;;;9.30;;
3779;SDS011;1905;52.482;9.802;2023-11-21T02:49:51;23.50;;;9.27;;
3779;SDS011;1905;52.482;9.802;2023-11-21T02:52:19;20.90;;;8.70;;
3779;SDS011;1905;52.482;9.802;2023-11-21T02:54:47;20.97;;;10.13;;
3779;SDS011;1905;52.482;9.802;2023-11-21T02:57:15;23.37;;;9.10;;
3779;SDS011;1905;52.482;9.802;2023-11-21T02:59:44;27.47;;;11.93;;
3779;SDS011;1905;52.482;9.802;2023-11-21T03:02:12;24.87;;;10.13;;
3779;SDS011;1905;52.482;9.802;2023-11-21T03:04:39;26.63;;;9.63;;
3779;SDS011;1905;52.482;9.802;2023-11-21T03:07:09;22.40;;;11.93;;
3779;SDS011;1905;52.482;9.802;2023-11-21T03:09:37;25.13;;;9.53;;
3779;SDS011;1905;52.482;9.802;2023-11-21T03:12:05;24.93;;;10.87;;
3779;SDS011;1905;52.482;9.802;2023-11-21T03:14:33;20.93;;;9.40;;
3779;SDS011;1905;52.482;9.802;2023-11-21T03:17:02;20.40;;;9.07;;
3779;SDS011;1905;52.482;9.802;2023-11-21T03:19:31;21.40;;;9.00;;
3779;SDS011;1905;52.482;9.802;2023-11-21T03:21:59;24.53;;;10.50;;
3779;SDS011;1905;52.482;9.802;2023-11-21T03:24:26;31.47;;;10.70;;
3779;SDS011;1905;52.482;9.802;2023-11-21T03:26:54;23.17;;;10.60;;
3779;SDS011;1905;52.482;9.802;2023-11-21T03:29:22;24.50;;;9.50;;
3779;SDS011;1905;52.482;9.802;2023-11-21T03:31:50;19.50;;;9.47;;
3779;SDS011;1905;52.482;9.802;2023-11-21T03:34:22;19.47;;;9.40;;
3779;SDS011;1905;52.482;9.802;2023-11-21T03:36:51;24.90;;;10.33;;
3779;SDS011;1905;52.482;9.802;2023-11-21T03:39:19;21.93;;;9.43;;
3779;SDS011;1905;52.482;9.802;2023-11-21T03:41:48;19.73;;;8.50;;
3779;SDS011;1905;52.482;9.802;2023-11-21T03:44:16;30.47;;;11.17;;
3779;SDS011;1905;52.482;9.802;2023-11-21T03:46:44;26.17;;;11.77;;
3779;SDS011;1905;52.482;9.802;2023-11-21T03:49:12;25.10;;;11.10;;
3779;SDS011;1905;52.482;9.802;2023-11-21T03:51:42;21.93;;;9.60;;
3779;SDS011;1905;52.482;9.802;2023-11-21T03:54:09;24.97;;;11.53;;
3779;SDS011;1905;52.482;9.802;2023-11-21T03:56:38;30.57;;;12.83;;
3779;SDS011;1905;52.482;9.802;2023-11-21T03:59:06;28.97;;;11.67;;
3779;SDS011;1905;52.482;9.802;2023-11-21T04:01:34;29.67;;;11.50;;
3779;SDS011;1905;52.482;9.802;2023-11-21T04:04:02;26.33;;;12.13;;
3779;SDS011;1905;52.482;9.802;2023-11-21T04:06:30;28.47;;;12.97;;
3779;SDS011;1905;52.482;9.802;2023-11-21T04:09:00;27.07;;;12.80;;
3779;SDS011;1905;52.482;9.802;2023-11-21T04:11:30;28.03;;;12.10;;
3779;SDS011;1905;52.482;9.802;2023-11-21T04:13:59;27.93;;;12.67;;
3779;SDS011;1905;52.482;9.802;2023-11-21T04:16:27;26.97;;;11.70;;
3779;SDS011;1905;52.482;9.802;2023-11-21T04:18:54;25.63;;;10.30;;
3779;SDS011;1905;52.482;9.802;2023-11-21T04:21:23;26.90;;;11.30;;
3779;SDS011;1905;52.482;9.802;2023-11-21T04:23:51;23.17;;;11.87;;
3779;SDS011;1905;52.482;9.802;2023-11-21T04:26:20;24.20;;;10.63;;
3779;SDS011;1905;52.482;9.802;2023-11-21T04:28:48;25.97;;;11.53;;
3779;SDS011;1905;52.482;9.802;2023-11-21T04:31:16;26.00;;;11.43;;
3779;SDS011;1905;52.482;9.802;2023-11-21T04:33:44;26.47;;;13.17;;
3779;SDS011;1905;52.482;9.802;2023-11-21T04:36:12;22.30;;;10.77;;
3779;SDS011;1905;52.482;9.802;2023-11-21T04:38:39;25.27;;;10.13;;
3779;SDS011;1905;52.482;9.802;2023-11-21T04:41:09;30.13;;;13.27;;
3779;SDS011;1905;52.482;9.802;2023-11-21T04:43:39;23.23;;;10.80;;
3779;SDS011;1905;52.482;9.802;2023-11-21T04:46:08;26.47;;;11.73;;
3779;SDS011;1905;52.482;9.802;2023-11-21T04:48:36;26.40;;;12.07;;
3779;SDS011;1905;52.482;9.802;2023-11-21T04:51:04;23.90;;;9.40;;
3779;SDS011;1905;52.482;9.802;2023-11-21T04:53:33;24.17;;;10.83;;
3779;SDS011;1905;52.482;9.802;2023-11-21T04:56:01;23.37;;;10.20;;
3779;SDS011;1905;52.482;9.802;2023-11-21T04:58:29;25.63;;;10.87;;
3779;SDS011;1905;52.482;9.802;2023-11-21T05:00:59;29.23;;;11.00;;
3779;SDS011;1905;52.482;9.802;2023-11-21T05:03:27;25.30;;;9.23;;
3779;SDS011;1905;52.482;9.802;2023-11-21T05:05:56;21.63;;;10.00;;
3779;SDS011;1905;52.482;9.802;2023-11-21T05:08:23;21.13;;;9.27;;
3779;SDS011;1905;52.482;9.802;2023-11-21T05:10:51;21.47;;;8.77;;
3779;SDS011;1905;52.482;9.802;2023-11-21T05:13:20;19.93;;;8.80;;
3779;SDS011;1905;52.482;9.802;2023-11-21T05:15:48;21.53;;;8.87;;
3779;SDS011;1905;52.482;9.802;2023-11-21T05:18:18;19.63;;;8.07;;
3779;SDS011;1905;52.482;9.802;2023-11-21T05:20:45;21.30;;;8.20;;
3779;SDS011;1905;52.482;9.802;2023-11-21T05:23:13;17.70;;;8.80;;
3779;SDS011;1905;52.482;9.802;2023-11-21T05:25:41;18.33;;;8.37;;
3779;SDS011;1905;52.482;9.802;2023-11-21T05:28:09;18.50;;;7.37;;
3779;SDS011;1905;52.482;9.802;2023-11-21T05:30:37;16.93;;;6.67;;
3779;SDS011;1905;52.482;9.802;2023-11-21T05:33:05;17.60;;;7.53;;
3779;SDS011;1905;52.482;9.802;2023-11-21T05:35:34;18.87;;;9.47;;
3779;SDS011;1905;52.482;9.802;2023-11-21T05:38:02;20.93;;;8.77;;
3779;SDS011;1905;52.482;9.802;2023-11-21T05:40:30;15.67;;;6.70;;
3779;SDS011;1905;52.482;9.802;2023-11-21T05:42:57;16.80;;;6.80;;
3779;SDS011;1905;52.482;9.802;2023-11-21T05:45:25;18.07;;;5.80;;
3779;SDS011;1905;52.482;9.802;2023-11-21T05:47:53;15.20;;;6.43;;
3779;SDS011;1905;52.482;9.802;2023-11-21T05:50:21;16.00;;;6.03;;
3779;SDS011;1905;52.482;9.802;2023-11-21T05:52:51;19.20;;;7.00;;
3779;SDS011;1905;52.482;9.802;2023-11-21T05:55:18;17.63;;;7.03;;
3779;SDS011;1905;52.482;9.802;2023-11-21T05:57:47;16.47;;;6.97;;
3779;SDS011;1905;52.482;9.802;2023-11-21T06:00:15;15.30;;;5.67;;
3779;SDS011;1905;52.482;9.802;2023-11-21T06:02:47;15.93;;;6.50;;
3779;SDS011;1905;52.482;9.802;2023-11-21T06:05:17;11.63;;;5.27;;
3779;SDS011;1905;52.482;9.802;2023-11-21T06:07:46;13.50;;;5.13;;
3779;SDS011;1905;52.482;9.802;2023-11-21T06:10:15;12.40;;;5.00;;
3779;SDS011;1905;52.482;9.802;2023-11-21T06:12:46;9.43;;;3.73;;
3779;SDS011;1905;52.482;9.802;2023-11-21T06:15:14;9.60;;;3.20;;
3779;SDS011;1905;52.482;9.802;2023-11-21T06:17:45;10.57;;;3.63;;
3779;SDS011;1905;52.482;9.802;2023-11-21T06:20:18;10.53;;;2.80;;
3779;SDS011;1905;52.482;9.802;2023-11-21T06:22:47;8.40;;;2.40;;
3779;SDS011;1905;52.482;9.802;2023-11-21T06:25:18;9.80;;;2.47;;
3779;SDS011;1905;52.482;9.802;2023-11-21T06:27:46;6.90;;;2.30;;
3779;SDS011;1905;52.482;9.802;2023-11-21T06:30:15;8.87;;;2.50;;
3779;SDS011;1905;52.482;9.802;2023-11-21T06:32:43;7.03;;;2.30;;
3779;SDS011;1905;52.482;9.802;2023-11-21T06:35:12;7.47;;;2.67;;
3779;SDS011;1905;52.482;9.802;2023-11-21T06:37:42;8.23;;;3.00;;
3779;SDS011;1905;52.482;9.802;2023-11-21T06:40:14;7.10;;;2.23;;
3779;SDS011;1905;52.482;9.802;2023-11-21T06:42:43;10.80;;;3.53;;
3779;SDS011;1905;52.482;9.802;2023-11-21T06:45:13;8.10;;;3.10;;
3779;SDS011;1905;52.482;9.802;2023-11-21T06:47:41;9.60;;;2.97;;
3779;SDS011;1905;52.482;9.802;2023-11-21T06:50:10;10.87;;;3.87;;
3779;SDS011;1905;52.482;9.802;2023-11-21T06:52:38;8.17;;;2.83;;
3779;SDS011;1905;52.482;9.802;2023-11-21T06:55:06;8.10;;;2.73;;
3779;SDS011;1905;52.482;9.802;2023-11-21T06:57:36;8.87;;;3.03;;
3779;SDS011;1905;52.482;9.802;2023-11-21T07:00:06;7.60;;;2.70;;
3779;SDS011;1905;52.482;9.802;2023-11-21T07:02:36;7.90;;;2.93;;
3779;SDS011;1905;52.482;9.802;2023-11-21T07:05:05;9.90;;;2.93;;
3779;SDS011;1905;52.482;9.802;2023-11-21T07:07:33;10.17;;;3.20;;
3779;SDS011;1905;52.482;9.802;2023-11-21T07:10:02;9.30;;;3.80;;
3779;SDS011;1905;52.482;9.802;2023-11-21T07:12:30;8.77;;;3.20;;
3779;SDS011;1905;52.482;9.802;2023-11-21T07:14:58;14.80;;;4.20;;
3779;SDS011;1905;52.482;9.802;2023-11-21T07:17:27;10.40;;;4.10;;
3779;SDS011;1905;52.482;9.802;2023-11-21T07:19:55;8.83;;;3.77;;
3779;SDS011;1905;52.482;9.802;2023-11-21T07:22:23;9.00;;;3.77;;
3779;SDS011;1905;52.482;9.802;2023-11-21T07:24:51;11.13;;;4.30;;
3779;SDS011;1905;52.482;9.802;2023-11-21T07:27:19;11.90;;;4.00;;
3779;SDS011;1905;52.482;9.802;2023-11-21T07:29:47;13.50;;;4.60;;
3779;SDS011;1905;52.482;9.802;2023-11-21T07:32:15;10.10;;;4.37;;
3779;SDS011;1905;52.482;9.802;2023-11-21T07:34:44;11.63;;;4.60;;
3779;SDS011;1905;52.482;9.802;2023-11-21T07:37:12;10.90;;;4.23;;
3779;SDS011;1905;52.482;9.802;2023-11-21T07:39:40;11.27;;;4.80;;
3779;SDS011;1905;52.482;9.802;2023-11-21T07:42:09;12.80;;;5.13;;
3779;SDS011;1905;52.482;9.802;2023-11-21T07:44:37;13.70;;;5.07;;
3779;SDS011;1905;52.482;9.802;2023-11-21T07:47:05;11.03;;;5.23;;
3779;SDS011;1905;52.482;9.802;2023-11-21T07:49:33;11.90;;;5.27;;
3779;SDS011;1905;52.482;9.802;2023-11-21T07:52:02;15.53;;;5.83;;
3779;SDS011;1905;52.482;9.802;2023-11-21T07:54:31;12.80;;;5.50;;
3779;SDS011;1905;52.482;9.802;2023-11-21T07:56:58;15.57;;;7.60;;
3779;SDS011;1905;52.482;9.802;2023-11-21T07:59:26;14.47;;;6.67;;
3779;SDS011;1905;52.482;9.802;2023-11-21T08:01:54;14.77;;;5.67;;
3779;SDS011;1905;52.482;9.802;2023-11-21T08:04:21;11.73;;;5.40;;
3779;SDS011;1905;52.482;9.802;2023-11-21T08:06:49;17.37;;;7.00;;
3779;SDS011;1905;52.482;9.802;2023-11-21T08:09:18;11.77;;;5.03;;
3779;SDS011;1905;52.482;9.802;2023-11-21T08:11:50;11.97;;;5.17;;
3779;SDS011;1905;52.482;9.802;2023-11-21T08:14:18;13.93;;;6.00;;
3779;SDS011;1905;52.482;9.802;2023-11-21T08:16:46;12.43;;;5.30;;
3779;SDS011;1905;52.482;9.802;2023-11-21T08:19:14;14.73;;;5.63;;
3779;SDS011;1905;52.482;9.802;2023-11-21T08:21:42;13.23;;;5.30;;
3779;SDS011;1905;52.482;9.802;2023-11-21T08:24:11;13.13;;;6.00;;
3779;SDS011;1905;52.482;9.802;2023-11-21T08:26:40;14.90;;;5.87;;
3779;SDS011;1905;52.482;9.802;2023-11-21T08:29:07;12.37;;;5.83;;
3779;SDS011;1905;52.482;9.802;2023-11-21T08:31:35;13.93;;;5.87;;
3779;SDS011;1905;52.482;9.802;2023-11-21T08:34:04;13.47;;;5.30;;
3779;SDS011;1905;52.482;9.802;2023-11-21T08:36:31;14.67;;;6.80;;
3779;SDS011;1905;52.482;9.802;2023-11-21T08:38:59;9.73;;;4.77;;
3779;SDS011;1905;52.482;9.802;2023-11-21T08:41:27;13.07;;;5.20;;
3779;SDS011;1905;52.482;9.802;2023-11-21T08:43:58;13.03;;;5.40;;
3779;SDS011;1905;52.482;9.802;2023-11-21T08:46:26;13.47;;;4.47;;
3779;SDS011;1905;52.482;9.802;2023-11-21T08:48:54;13.80;;;6.50;;
3779;SDS011;1905;52.482;9.802;2023-11-21T08:51:23;13.30;;;5.73;;
3779;SDS011;1905;52.482;9.802;2023-11-21T08:53:51;18.03;;;6.50;;
3779;SDS011;1905;52.482;9.802;2023-11-21T08:56:19;12.30;;;5.63;;
3779;SDS011;1905;52.482;9.802;2023-11-21T08:58:47;12.33;;;6.70;;
3779;SDS011;1905;52.482;9.802;2023-11-21T09:01:18;14.10;;;6.40;;
3779;SDS011;1905;52.482;9.802;2023-11-21T09:03:46;12.47;;;4.97;;
3779;SDS011;1905;52.482;9.802;2023-11-21T09:06:14;13.50;;;5.17;;
3779;SDS011;1905;52.482;9.802;2023-11-21T09:08:42;11.77;;;5.43;;
3779;SDS011;1905;52.482;9.802;2023-11-21T09:11:09;12.07;;;5.13;;
3779;SDS011;1905;52.482;9.802;2023-11-21T09:13:37;12.97;;;5.13;;
3779;SDS011;1905;52.482;9.802;2023-11-21T09:16:05;12.30;;;4.77;;
3779;SDS011;1905;52.482;9.802;2023-11-21T09:18:35;15.83;;;5.80;;
3779;SDS011;1905;52.482;9.802;2023-11-21T09:21:03;11.90;;;4.77;;
3779;SDS011;1905;52.482;9.802;2023-11-21T09:23:31;11.63;;;5.33;;
3779;SDS011;1905;52.482;9.802;2023-11-21T09:25:59;11.37;;;5.27;;
3779;SDS011;1905;52.482;9.802;2023-11-21T09:28:27;10.83;;;4.93;;
3779;SDS011;1905;52.482;9.802;2023-11-21T09:30:55;12.40;;;5.20;;
3779;SDS011;1905;52.482;9.802;2023-11-21T09:33:23;14.13;;;5.70;;
3779;SDS011;1905;52.482;9.802;2023-11-21T09:35:52;11.87;;;4.93;;
3779;SDS011;1905;52.482;9.802;2023-11-21T09:38:20;12.47;;;4.40;;
3779;SDS011;1905;52.482;9.802;2023-11-21T09:40:48;10.83;;;4.30;;
3779;SDS011;1905;52.482;9.802;2023-11-21T09:43:16;11.80;;;5.43;;
3779;SDS011;1905;52.482;9.802;2023-11-21T09:45:45;10.10;;;4.03;;
3779;SDS011;1905;52.482;9.802;2023-11-21T09:48:15;10.97;;;4.53;;
3779;SDS011;1905;52.482;9.802;2023-11-21T09:50:44;10.77;;;4.50;;
3779;SDS011;1905;52.482;9.802;2023-11-21T09:53:19;12.47;;;4.07;;
3779;SDS011;1905;52.482;9.802;2023-11-21T09:55:49;9.23;;;4.57;;
3779;SDS011;1905;52.482;9.802;2023-11-21T09:58:19;12.03;;;5.03;;
3779;SDS011;1905;52.482;9.802;2023-11-21T10:00:52;11.43;;;3.70;;
3779;SDS011;1905;52.482;9.802;2023-11-21T10:03:21;12.17;;;5.07;;
3779;SDS011;1905;52.482;9.802;2023-11-21T10:05:50;16.23;;;4.87;;
3779;SDS011;1905;52.482;9.802;2023-11-21T10:08:20;10.53;;;4.47;;
3779;SDS011;1905;52.482;9.802;2023-11-21T10:10:51;9.37;;;4.50;;
3779;SDS011;1905;52.482;9.802;2023-11-21T10:13:21;10.30;;;3.80;;
3779;SDS011;1905;52.482;9.802;2023-11-21T10:15:49;11.60;;;4.83;;
3779;SDS011;1905;52.482;9.802;2023-11-21T10:18:20;10.73;;;4.40;;
3779;SDS011;1905;52.482;9.802;2023-11-21T10:20:49;11.47;;;4.40;;
3779;SDS011;1905;52.482;9.802;2023-11-21T10:23:22;11.30;;;4.47;;
3779;SDS011;1905;52.482;9.802;2023-11-21T10:25:50;11.40;;;4.70;;
3779;SDS011;1905;52.482;9.802;2023-11-21T10:28:19;13.50;;;4.20;;
3779;SDS011;1905;52.482;9.802;2023-11-21T10:30:48;12.70;;;6.47;;
3779;SDS011;1905;52.482;9.802;2023-11-21T10:33:16;10.10;;;4.77;;
3779;SDS011;1905;52.482;9.802;2023-11-21T10:35:44;10.03;;;4.33;;
3779;SDS011;1905;52.482;9.802;2023-11-21T10:38:17;12.00;;;4.37;;
3779;SDS011;1905;52.482;9.802;2023-11-21T10:40:48;9.60;;;4.73;;
3779;SDS011;1905;52.482;9.802;2023-11-21T10:43:17;11.50;;;5.60;;
3779;SDS011;1905;52.482;9.802;2023-11-21T10:45:45;10.33;;;4.27;;
3779;SDS011;1905;52.482;9.802;2023-11-21T10:48:13;27.33;;;12.93;;
3779;SDS011;1905;52.482;9.802;2023-11-21T10:50:42;13.57;;;5.60;;
3779;SDS011;1905;52.482;9.802;2023-11-21T10:53:11;12.90;;;4.00;;
3779;SDS011;1905;52.482;9.802;2023-11-21T10:55:40;11.70;;;4.70;;
3779;SDS011;1905;52.482;9.802;2023-11-21T10:58:09;9.50;;;4.40;;
3779;SDS011;1905;52.482;9.802;2023-11-21T11:00:40;8.70;;;3.80;;
3779;SDS011;1905;52.482;9.802;2023-11-21T11:03:09;10.47;;;3.70;;
3779;SDS011;1905;52.482;9.802;2023-11-21T11:05:43;8.93;;;4.00;;
3779;SDS011;1905;52.482;9.802;2023-11-21T11:08:20;10.67;;;4.60;;
3779;SDS011;1905;52.482;9.802;2023-11-21T11:10:53;15.43;;;5.63;;
3779;SDS011;1905;52.482;9.802;2023-11-21T11:13:24;9.37;;;4.13;;
3779;SDS011;1905;52.482;9.802;2023-11-21T11:15:52;11.00;;;4.87;;
3779;SDS011;1905;52.482;9.802;2023-11-21T11:18:27;18.27;;;11.77;;
3779;SDS011;1905;52.482;9.802;2023-11-21T11:20:56;14.53;;;7.17;;
3779;SDS011;1905;52.482;9.802;2023-11-21T11:23:36;34.60;;;26.73;;
3779;SDS011;1905;52.482;9.802;2023-11-21T11:26:16;18.00;;;13.10;;
3779;SDS011;1905;52.482;9.802;2023-11-21T11:28:55;10.33;;;4.83;;
3779;SDS011;1905;52.482;9.802;2023-11-21T11:31:37;10.93;;;5.50;;
3779;SDS011;1905;52.482;9.802;2023-11-21T11:34:17;9.23;;;3.03;;
3779;SDS011;1905;52.482;9.802;2023-11-21T11:36:54;10.30;;;4.43;;
3779;SDS011;1905;52.482;9.802;2023-11-21T11:39:29;10.63;;;4.63;;
3779;SDS011;1905;52.482;9.802;2023-11-21T11:41:58;9.10;;;3.73;;
3779;SDS011;1905;52.482;9.802;2023-11-21T11:44:47;8.87;;;3.40;;
3779;SDS011;1905;52.482;9.802;2023-11-21T11:47:20;9.33;;;4.40;;
3779;SDS011;1905;52.482;9.802;2023-11-21T11:49:57;7.80;;;3.13;;
3779;SDS011;1905;52.482;9.802;2023-11-21T11:52:36;10.83;;;3.40;;
3779;SDS011;1905;52.482;9.802;2023-11-21T11:55:07;9.27;;;3.70;;
3779;SDS011;1905;52.482;9.802;2023-11-21T11:57:40;9.00;;;3.77;;
3779;SDS011;1905;52.482;9.802;2023-11-21T12:00:14;9.37;;;3.57;;
3779;SDS011;1905;52.482;9.802;2023-11-21T12:02:46;8.73;;;3.00;;
3779;SDS011;1905;52.482;9.802;2023-11-21T12:05:15;10.30;;;3.63;;
3779;SDS011;1905;52.482;9.802;2023-11-21T12:07:45;8.43;;;3.50;;
3779;SDS011;1905;52.482;9.802;2023-11-21T12:10:16;8.90;;;3.40;;
3779;SDS011;1905;52.482;9.802;2023-11-21T12:12:45;11.40;;;4.20;;
3779;SDS011;1905;52.482;9.802;2023-11-21T12:15:16;9.00;;;4.10;;
3779;SDS011;1905;52.482;9.802;2023-11-21T12:17:43;10.37;;;4.93;;
3779;SDS011;1905;52.482;9.802;2023-11-21T12:20:12;8.47;;;3.87;;
3779;SDS011;1905;52.482;9.802;2023-11-21T12:22:44;11.33;;;3.80;;
3779;SDS011;1905;52.482;9.802;2023-11-21T12:25:15;11.00;;;4.13;;
3779;SDS011;1905;52.482;9.802;2023-11-21T12:27:45;10.17;;;4.43;;
3779;SDS011;1905;52.482;9.802;2023-11-21T12:30:17;11.10;;;5.03;;
3779;SDS011;1905;52.482;9.802;2023-11-21T12:32:48;10.33;;;4.00;;
3779;SDS011;1905;52.482;9.802;2023-11-21T12:35:17;8.77;;;4.20;;
3779;SDS011;1905;52.482;9.802;2023-11-21T12:37:48;9.50;;;4.37;;
3779;SDS011;1905;52.482;9.802;2023-11-21T12:40:17;16.30;;;7.73;;
3779;SDS011;1905;52.482;9.802;2023-11-21T12:42:46;12.10;;;4.53;;
3779;SDS011;1905;52.482;9.802;2023-11-21T12:45:21;9.00;;;4.30;;
3779;SDS011;1905;52.482;9.802;2023-11-21T12:47:53;9.83;;;4.17;;
3779;SDS011;1905;52.482;9.802;2023-11-21T12:50:23;10.77;;;4.87;;
3779;SDS011;1905;52.482;9.802;2023-11-21T12:52:57;9.43;;;4.00;;
3779;SDS011;1905;52.482;9.802;2023-11-21T12:55:29;8.90;;;3.80;;
3779;SDS011;1905;52.482;9.802;2023-11-21T12:57:59;10.93;;;4.67;;
3779;SDS011;1905;52.482;9.802;2023-11-21T13:00:36;11.77;;;5.60;;
3779;SDS011;1905;52.482;9.802;2023-11-21T13:03:07;8.80;;;4.17;;
3779;SDS011;1905;52.482;9.802;2023-11-21T13:05:37;10.50;;;5.07;;
3779;SDS011;1905;52.482;9.802;2023-11-21T13:08:06;11.63;;;5.27;;
3779;SDS011;1905;52.482;9.802;2023-11-21T13:10:36;10.60;;;3.87;;
3779;SDS011;1905;52.482;9.802;2023-11-21T13:13:05;10.30;;;4.70;;
3779;SDS011;1905;52.482;9.802;2023-11-21T13:15:38;11.60;;;4.00;;
3779;SDS011;1905;52.482;9.802;2023-11-21T13:18:07;14.80;;;5.70;;
3779;SDS011;1905;52.482;9.802;2023-11-21T13:20:37;10.57;;;4.77;;
3779;SDS011;1905;52.482;9.802;2023-11-21T13:23:07;12.80;;;5.30;;
3779;SDS011;1905;52.482;9.802;2023-11-21T13:25:38;12.07;;;3.87;;
3779;SDS011;1905;52.482;9.802;2023-11-21T13:28:08;9.40;;;3.83;;
3779;SDS011;1905;52.482;9.802;2023-11-21T13:30:39;9.60;;;4.37;;
3779;SDS011;1905;52.482;9.802;2023-11-21T13:33:07;9.70;;;4.33;;
3779;SDS011;1905;52.482;9.802;2023-11-21T13:35:36;10.00;;;3.37;;
3779;SDS011;1905;52.482;9.802;2023-11-21T13:38:08;11.80;;;3.90;;
3779;SDS011;1905;52.482;9.802;2023-11-21T13:40:37;10.90;;;4.80;;
3779;SDS011;1905;52.482;9.802;2023-11-21T13:43:09;11.77;;;3.77;;
3779;SDS011;1905;52.482;9.802;2023-11-21T13:45:38;9.27;;;3.43;;
3779;SDS011;1905;52.482;9.802;2023-11-21T13:48:10;8.83;;;3.40;;
3779;SDS011;1905;52.482;9.802;2023-11-21T13:50:40;11.57;;;4.10;;
3779;SDS011;1905;52.482;9.802;2023-11-21T13:53:15;8.60;;;3.40;;
3779;SDS011;1905;52.482;9.802;2023-11-21T13:55:48;8.10;;;3.17;;
3779;SDS011;1905;52.482;9.802;2023-11-21T13:58:17;10.37;;;3.57;;
3779;SDS011;1905;52.482;9.802;2023-11-21T14:00:50;10.80;;;4.43;;
3779;SDS011;1905;52.482;9.802;2023-11-21T14:03:23;25.37;;;9.57;;
3779;SDS011;1905;52.482;9.802;2023-11-21T14:06:07;11.67;;;5.77;;
3779;SDS011;1905;52.482;9.802;2023-11-21T14:08:40;11.03;;;4.50;;
3779;SDS011;1905;52.482;9.802;2023-11-21T14:11:09;9.83;;;3.70;;
3779;SDS011;1905;52.482;9.802;2023-11-21T14:13:40;17.10;;;8.07;;
3779;SDS011;1905;52.482;9.802;2023-11-21T14:16:14;11.63;;;5.40;;
3779;SDS011;1905;52.482;9.802;2023-11-21T14:18:43;9.67;;;4.33;;
3779;SDS011;1905;52.482;9.802;2023-11-21T14:21:20;8.10;;;3.90;;
3779;SDS011;1905;52.482;9.802;2023-11-21T14:23:48;13.47;;;3.70;;
3779;SDS011;1905;52.482;9.802;2023-11-21T14:26:16;8.20;;;3.43;;
3779;SDS011;1905;52.482;9.802;2023-11-21T14:28:44;11.17;;;4.03;;
3779;SDS011;1905;52.482;9.802;2023-11-21T14:31:16;10.50;;;3.60;;
3779;SDS011;1905;52.482;9.802;2023-11-21T14:33:45;7.03;;;2.63;;
3779;SDS011;1905;52.482;9.802;2023-11-21T14:36:13;8.37;;;3.47;;
3779;SDS011;1905;52.482;9.802;2023-11-21T14:38:43;9.00;;;3.90;;
3779;SDS011;1905;52.482;9.802;2023-11-21T14:41:11;8.70;;;3.20;;
3779;SDS011;1905;52.482;9.802;2023-11-21T14:43:40;8.67;;;3.40;;
3779;SDS011;1905;52.482;9.802;2023-11-21T14:46:09;9.10;;;3.70;;
3779;SDS011;1905;52.482;9.802;2023-11-21T14:48:43;9.30;;;3.40;;
3779;SDS011;1905;52.482;9.802;2023-11-21T14:51:14;9.50;;;4.70;;
3779;SDS011;1905;52.482;9.802;2023-11-21T14:53:56;10.60;;;4.40;;
3779;SDS011;1905;52.482;9.802;2023-11-21T14:56:32;10.53;;;5.23;;
3779;SDS011;1905;52.482;9.802;2023-11-21T14:59:01;8.07;;;4.37;;
3779;SDS011;1905;52.482;9.802;2023-11-21T15:01:39;12.30;;;5.00;;
3779;SDS011;1905;52.482;9.802;2023-11-21T15:04:23;13.13;;;7.00;;
3779;SDS011;1905;52.482;9.802;2023-11-21T15:07:02;9.10;;;3.70;;
3779;SDS011;1905;52.482;9.802;2023-11-21T15:09:30;15.40;;;6.53;;
3779;SDS011;1905;52.482;9.802;2023-11-21T15:12:08;11.10;;;6.10;;
3779;SDS011;1905;52.482;9.802;2023-11-21T15:14:42;10.60;;;6.00;;
3779;SDS011;1905;52.482;9.802;2023-11-21T15:17:12;10.33;;;4.10;;